createdAt,value
2018-12-22T00:01:10.827Z,100.00
2018-12-22T00:03:38.284Z,100.00
2018-12-22T00:06:04.225Z,100.00
2018-12-22T00:08:32.083Z,100.00
2018-12-22T00:10:57.974Z,100.00
2018-12-22T00:13:23.820Z,100.00
2018-12-22T00:15:49.717Z,100.00
2018-12-22T00:18:15.767Z,100.00
2018-12-22T00:20:44.659Z,100.00
2018-12-22T00:23:10.609Z,100.00
2018-12-22T00:25:41.185Z,100.00
2018-12-22T00:28:07.099Z,100.00
2018-12-22T00:30:34.031Z,100.00
2018-12-22T00:32:59.964Z,100.00
2018-12-22T00:35:29.754Z,100.00
2018-12-22T00:37:55.682Z,100.00
2018-12-22T00:40:23.528Z,100.00
2018-12-22T00:42:49.617Z,100.00
2018-12-22T00:45:19.255Z,100.00
2018-12-22T00:47:45.177Z,100.00
2018-12-22T00:50:11.256Z,100.00
2018-12-22T00:52:37.202Z,100.00
2018-12-22T00:55:03.722Z,100.00
2018-12-22T00:57:29.637Z,100.00
2018-12-22T00:59:55.548Z,100.00
2018-12-22T01:02:24.416Z,100.00
2018-12-22T01:04:50.303Z,100.00
2018-12-22T01:07:19.202Z,100.00
2018-12-22T01:09:45.341Z,100.00
2018-12-22T01:12:14.447Z,100.00
2018-12-22T01:14:40.329Z,100.00
2018-12-22T01:17:09.926Z,100.00
2018-12-22T01:19:35.815Z,100.00
2018-12-22T01:22:03.732Z,100.00
2018-12-22T01:24:29.645Z,100.00
2018-12-22T01:26:55.531Z,100.00
2018-12-22T01:29:21.465Z,100.00
2018-12-22T01:31:47.340Z,100.00
2018-12-22T01:34:16.392Z,100.00
2018-12-22T01:36:43.418Z,100.00
2018-12-22T01:39:09.508Z,100.00
2018-12-22T01:41:35.366Z,100.00
2018-12-22T01:44:05.590Z,100.00
2018-12-22T01:46:31.899Z,100.00
2018-12-22T01:48:58.646Z,100.00
2018-12-22T01:51:24.539Z,100.00
2018-12-22T01:53:53.480Z,100.00
2018-12-22T01:56:19.355Z,100.00
2018-12-22T01:58:48.351Z,100.00
2018-12-22T02:01:14.240Z,100.00
2018-12-22T02:03:40.176Z,100.00
2018-12-22T02:06:06.048Z,100.00
2018-12-22T02:08:31.991Z,100.00
2018-12-22T02:11:01.784Z,100.00
2018-12-22T02:13:27.706Z,100.00
2018-12-22T02:15:55.428Z,100.00
2018-12-22T02:18:21.283Z,100.00
2018-12-22T02:20:51.180Z,100.00
2018-12-22T02:23:17.105Z,100.00
2018-12-22T02:25:43.967Z,100.00
2018-12-22T02:28:09.868Z,100.00
2018-12-22T02:30:38.705Z,100.00
2018-12-22T02:33:04.945Z,100.00
2018-12-22T02:35:34.323Z,100.00
2018-12-22T02:38:00.192Z,100.00
2018-12-22T02:40:26.103Z,100.00
2018-12-22T02:42:52.405Z,100.00
2018-12-22T02:45:18.324Z,100.00
2018-12-22T02:47:46.148Z,100.00
2018-12-22T02:50:12.081Z,100.00
2018-12-22T02:52:41.710Z,100.00
2018-12-22T02:55:07.650Z,100.00
2018-12-22T02:57:35.475Z,100.00
2018-12-22T03:00:01.404Z,100.00
2018-12-22T03:02:29.242Z,100.00
2018-12-22T03:04:55.169Z,100.00
2018-12-22T03:07:24.206Z,100.00
2018-12-22T03:09:50.086Z,100.00
2018-12-22T03:12:18.936Z,100.00
2018-12-22T03:14:44.800Z,100.00
2018-12-22T03:17:10.708Z,100.00
2018-12-22T03:19:36.642Z,100.00
2018-12-22T03:22:02.661Z,100.00
2018-12-22T03:24:31.995Z,100.00
2018-12-22T03:26:57.914Z,100.00
2018-12-22T03:29:25.624Z,99.43
2018-12-22T03:31:52.600Z,98.05
2018-12-22T03:34:20.262Z,96.65
2018-12-22T03:36:46.169Z,97.00
2018-12-22T03:39:15.665Z,99.97
2018-12-22T03:41:41.547Z,100.00
2018-12-22T03:44:10.940Z,100.00
2018-12-22T03:46:36.850Z,100.00
2018-12-22T03:49:04.462Z,99.33
2018-12-22T03:51:30.365Z,98.34
2018-12-22T03:53:56.354Z,98.25
2018-12-22T03:56:22.457Z,97.45
2018-12-22T03:58:48.347Z,98.47
2018-12-22T04:01:16.030Z,98.31
2018-12-22T04:03:41.924Z,99.01
2018-12-22T04:06:10.884Z,99.45
2018-12-22T04:08:36.928Z,99.22
2018-12-22T04:11:05.816Z,97.56
2018-12-22T04:13:31.749Z,97.21
2018-12-22T04:16:01.396Z,97.06
2018-12-22T04:18:27.254Z,96.53
2018-12-22T04:20:57.956Z,96.92
2018-12-22T04:23:23.862Z,97.19
2018-12-22T04:25:49.746Z,95.99
2018-12-22T04:28:15.659Z,95.33
2018-12-22T04:30:41.665Z,93.93
2018-12-22T04:33:07.527Z,94.35
2018-12-22T04:35:33.417Z,94.65
2018-12-22T04:38:01.917Z,93.87
2018-12-22T04:40:27.950Z,92.78
2018-12-22T04:42:56.972Z,91.02
2018-12-22T04:45:23.053Z,91.64
2018-12-22T04:47:51.278Z,92.15
2018-12-22T04:50:17.178Z,89.89
2018-12-22T04:52:46.627Z,88.70
2018-12-22T04:55:12.994Z,87.90
2018-12-22T04:57:40.091Z,88.34
2018-12-22T05:00:07.926Z,87.56
2018-12-22T05:02:34.727Z,87.93
2018-12-22T05:05:00.659Z,88.17
2018-12-22T05:07:26.500Z,87.67
2018-12-22T05:09:52.370Z,87.83
2018-12-22T05:12:18.278Z,86.92
2018-12-22T05:14:47.701Z,88.88
2018-12-22T05:17:13.593Z,90.68
2018-12-22T05:19:42.535Z,91.25
2018-12-22T05:22:08.423Z,91.14
2018-12-22T05:24:36.305Z,92.43
2018-12-22T05:27:02.251Z,92.88
2018-12-22T05:29:31.946Z,92.27
2018-12-22T05:31:57.811Z,92.06
2018-12-22T05:34:25.492Z,92.39
2018-12-22T05:36:51.362Z,93.33
2018-12-22T05:39:21.075Z,93.23
2018-12-22T05:41:47.008Z,94.28
2018-12-22T05:44:12.925Z,95.05
2018-12-22T05:46:38.821Z,95.93
2018-12-22T05:49:04.730Z,96.77
2018-12-22T05:51:32.056Z,96.40
2018-12-22T05:53:58.040Z,97.66
2018-12-22T05:56:26.797Z,98.58
2018-12-22T05:58:52.731Z,98.44
2018-12-22T06:01:22.944Z,98.41
2018-12-22T06:03:48.856Z,98.90
2018-12-22T06:06:16.365Z,100.00
2018-12-22T06:08:42.254Z,100.00
2018-12-22T06:11:12.124Z,100.00
2018-12-22T06:13:38.020Z,100.00
2018-12-22T06:16:05.862Z,100.00
2018-12-22T06:18:31.748Z,100.00
2018-12-22T06:20:57.623Z,100.00
2018-12-22T06:23:23.490Z,100.00
2018-12-22T06:25:49.393Z,100.00
2018-12-22T06:28:18.565Z,100.00
2018-12-22T06:30:44.557Z,100.00
2018-12-22T06:33:12.495Z,100.00
2018-12-22T06:35:38.370Z,100.00
2018-12-22T06:38:08.223Z,100.00
2018-12-22T06:40:34.313Z,100.00
2018-12-22T06:43:02.052Z,98.79
2018-12-22T06:45:27.950Z,99.58
2018-12-22T06:47:57.575Z,99.41
2018-12-22T06:50:23.476Z,99.34
2018-12-22T06:52:51.300Z,99.19
2018-12-22T06:55:17.419Z,98.96
2018-12-22T06:57:43.324Z,98.84
2018-12-22T07:00:17.467Z,98.86
2018-12-22T07:02:37.450Z,99.09
2018-12-22T07:05:04.086Z,98.39
2018-12-22T07:07:29.962Z,99.65
2018-12-22T07:09:57.847Z,99.96
2018-12-22T07:12:28.821Z,100.00
2018-12-22T07:14:54.894Z,100.00
2018-12-22T07:17:20.802Z,100.00
2018-12-22T07:19:47.568Z,100.00
2018-12-22T07:22:15.753Z,100.00
2018-12-22T07:24:41.641Z,100.00
2018-12-22T07:27:09.888Z,100.00
2018-12-22T07:29:35.951Z,100.00
2018-12-22T07:32:01.815Z,100.00
2018-12-22T07:34:27.724Z,100.00
2018-12-22T07:36:53.572Z,100.00
2018-12-22T07:39:19.859Z,100.00
2018-12-22T07:41:47.840Z,100.00
2018-12-22T07:44:13.750Z,100.00
2018-12-22T07:46:42.625Z,100.00
2018-12-22T07:49:09.438Z,100.00
2018-12-22T07:51:38.516Z,100.00
2018-12-22T07:54:04.457Z,100.00
2018-12-22T07:56:32.544Z,100.00
2018-12-22T07:58:58.490Z,100.00
2018-12-22T08:01:27.983Z,100.00
2018-12-22T08:03:53.877Z,99.28
2018-12-22T08:06:22.802Z,99.97
2018-12-22T08:08:48.650Z,99.75
2018-12-22T08:11:14.521Z,98.32
2018-12-22T08:13:40.416Z,97.00
2018-12-22T08:16:06.349Z,96.92
2018-12-22T08:18:33.811Z,94.79
2018-12-22T08:20:59.728Z,95.29
2018-12-22T08:23:29.712Z,97.35
2018-12-22T08:25:55.651Z,96.91
2018-12-22T08:28:23.543Z,99.19
2018-12-22T08:30:49.574Z,100.00
2018-12-22T08:33:19.083Z,100.00
2018-12-22T08:35:45.096Z,100.00
2018-12-22T08:38:11.944Z,100.00
2018-12-22T08:40:37.858Z,100.00
2018-12-22T08:43:07.100Z,100.00
2018-12-22T08:45:33.724Z,100.00
2018-12-22T08:47:59.683Z,100.00
2018-12-22T08:50:25.622Z,100.00
2018-12-22T08:52:51.519Z,100.00
2018-12-22T08:55:19.111Z,100.00
2018-12-22T08:57:44.989Z,100.00
2018-12-22T09:00:14.760Z,100.00
2018-12-22T09:02:40.670Z,100.00
2018-12-22T09:05:08.410Z,100.00
2018-12-22T09:07:34.304Z,100.00
2018-12-22T09:10:07.208Z,100.00
2018-12-22T09:12:33.177Z,100.00
2018-12-22T09:14:59.068Z,100.00
2018-12-22T09:17:26.927Z,100.00
2018-12-22T09:19:53.199Z,100.00
2018-12-22T09:22:19.057Z,100.00
2018-12-22T09:24:45.615Z,99.76
2018-12-22T09:27:11.507Z,99.62
2018-12-22T09:29:37.451Z,98.88
2018-12-22T09:32:04.591Z,96.62
2018-12-22T09:34:30.528Z,96.94
2018-12-22T09:37:00.257Z,98.00
2018-12-22T09:39:26.144Z,98.75
2018-12-22T09:41:53.993Z,99.07
2018-12-22T09:44:19.863Z,99.04
2018-12-22T09:46:49.569Z,98.94
2018-12-22T09:49:16.368Z,97.06
2018-12-22T09:51:43.231Z,97.81
2018-12-22T09:54:09.120Z,97.88
2018-12-22T09:56:38.956Z,97.62
2018-12-22T09:59:06.425Z,96.94
2018-12-22T10:01:32.652Z,95.93
2018-12-22T10:03:58.679Z,95.17
2018-12-22T10:06:24.601Z,94.36
2018-12-22T10:08:50.561Z,94.78
2018-12-22T10:11:16.616Z,93.28
2018-12-22T10:13:44.303Z,90.19
2018-12-22T10:16:10.289Z,92.13
2018-12-22T10:18:39.871Z,91.07
2018-12-22T10:21:05.802Z,90.47
2018-12-22T10:23:34.896Z,89.43
2018-12-22T10:26:00.785Z,90.86
2018-12-22T10:28:28.542Z,90.62
2018-12-22T10:30:54.420Z,89.69
2018-12-22T10:33:24.239Z,89.69
2018-12-22T10:35:50.088Z,91.50
2018-12-22T10:38:15.979Z,91.14
2018-12-22T10:40:42.244Z,91.90
2018-12-22T10:43:08.118Z,91.06
2018-12-22T10:45:35.080Z,90.93
2018-12-22T10:48:00.956Z,88.92
2018-12-22T10:50:29.722Z,88.95
2018-12-22T10:52:55.632Z,88.41
2018-12-22T10:55:24.295Z,87.40
2018-12-22T10:57:50.576Z,88.86
2018-12-22T11:00:20.325Z,88.32
2018-12-22T11:02:46.194Z,89.58
2018-12-22T11:05:15.750Z,90.33
2018-12-22T11:07:41.688Z,88.57
2018-12-22T11:10:12.206Z,87.61
2018-12-22T11:12:38.078Z,88.40
2018-12-22T11:15:07.217Z,89.89
2018-12-22T11:17:37.588Z,91.88
2018-12-22T11:20:12.722Z,92.53
2018-12-22T11:22:39.222Z,94.45
2018-12-22T11:25:09.846Z,95.95
2018-12-22T11:27:35.763Z,98.26
2018-12-22T11:30:01.653Z,98.08
2018-12-22T11:32:27.552Z,99.12
2018-12-22T11:34:53.444Z,100.00
2018-12-22T11:37:22.629Z,100.00
2018-12-22T11:39:48.525Z,100.00
2018-12-22T11:42:14.441Z,100.00
2018-12-22T11:44:40.339Z,100.00
2018-12-22T11:47:08.458Z,100.00
2018-12-22T11:49:35.151Z,99.48
2018-12-22T11:52:01.116Z,100.00
2018-12-22T11:54:26.995Z,99.41
2018-12-22T11:56:52.933Z,98.69
2018-12-22T11:59:18.820Z,98.62
2018-12-22T12:01:45.736Z,97.92
2018-12-22T12:04:11.656Z,95.29
2018-12-22T12:06:37.593Z,95.32
2018-12-22T12:09:04.615Z,95.79
2018-12-22T12:11:33.894Z,96.49
2018-12-22T12:14:00.088Z,95.34
2018-12-22T12:16:26.043Z,95.33
2018-12-22T12:19:05.511Z,94.72
2018-12-22T12:21:31.466Z,91.18
2018-12-22T12:23:57.409Z,86.79
2018-12-22T12:26:23.904Z,86.22
2018-12-22T12:28:49.845Z,86.38
2018-12-22T12:31:25.135Z,85.15
2018-12-22T12:33:51.358Z,83.79
2018-12-22T12:36:17.271Z,84.41
2018-12-22T12:38:43.147Z,84.37
2018-12-22T12:41:09.052Z,84.00
2018-12-22T12:43:34.952Z,85.06
2018-12-22T12:46:00.846Z,85.01
2018-12-22T12:48:26.746Z,84.67
2018-12-22T12:50:52.898Z,82.56
2018-12-22T12:53:22.478Z,81.29
2018-12-22T12:55:48.618Z,80.88
2018-12-22T12:58:14.529Z,81.32
2018-12-22T13:00:40.413Z,82.05
2018-12-22T13:03:08.356Z,82.35
2018-12-22T13:05:34.419Z,81.05
2018-12-22T13:08:00.395Z,82.84
2018-12-22T13:10:27.766Z,81.10
2018-12-22T13:13:01.089Z,81.01
2018-12-22T13:15:27.094Z,81.47
2018-12-22T13:17:53.020Z,81.22
2018-12-22T13:20:21.948Z,80.68
2018-12-22T13:22:48.089Z,81.83
2018-12-22T13:25:13.983Z,79.90
2018-12-22T13:27:39.837Z,80.02
2018-12-22T13:30:10.501Z,80.73
2018-12-22T13:32:37.782Z,82.60
2018-12-22T13:35:08.557Z,84.79
2018-12-22T13:37:34.508Z,84.72
2018-12-22T13:40:00.411Z,86.31
2018-12-22T13:42:26.305Z,86.18
2018-12-22T13:44:52.198Z,85.66
2018-12-22T13:47:18.099Z,85.13
2018-12-22T13:49:44.659Z,85.78
2018-12-22T13:52:10.587Z,86.38
2018-12-22T13:54:36.842Z,89.14
2018-12-22T13:57:02.722Z,90.67
2018-12-22T13:59:28.636Z,92.97
2018-12-22T14:01:54.767Z,92.42
2018-12-22T14:04:20.686Z,93.19
2018-12-22T14:06:46.600Z,92.57
2018-12-22T14:09:12.493Z,93.59
2018-12-22T14:11:38.454Z,95.71
2018-12-22T14:14:06.870Z,96.15
2018-12-22T14:16:34.419Z,97.12
2018-12-22T14:19:00.359Z,96.74
2018-12-22T14:21:26.230Z,95.87
2018-12-22T14:23:59.036Z,96.18
2018-12-22T14:26:24.909Z,96.68
2018-12-22T14:28:50.791Z,96.60
2018-12-22T14:31:16.724Z,95.85
2018-12-22T14:33:43.508Z,96.31
2018-12-22T14:36:09.656Z,95.69
2018-12-22T14:38:50.638Z,95.42
2018-12-22T14:41:16.527Z,94.29
2018-12-22T14:43:42.410Z,93.98
2018-12-22T14:46:08.345Z,93.15
2018-12-22T14:48:34.660Z,93.91
2018-12-22T14:51:00.542Z,94.03
2018-12-22T14:53:26.441Z,95.04
2018-12-22T14:55:54.067Z,95.12
2018-12-22T14:58:20.216Z,95.88
2018-12-22T15:00:46.139Z,97.02
2018-12-22T15:03:12.019Z,97.15
2018-12-22T15:05:37.912Z,96.84
2018-12-22T15:08:07.868Z,96.63
2018-12-22T15:10:34.737Z,96.66
2018-12-22T15:13:00.794Z,95.30
2018-12-22T15:15:26.661Z,96.53
2018-12-22T15:17:52.553Z,96.93
2018-12-22T15:20:24.657Z,98.67
2018-12-22T15:22:50.943Z,99.65
2018-12-22T15:25:16.867Z,100.00
2018-12-22T15:27:42.747Z,100.00
2018-12-22T15:30:12.187Z,100.00
2018-12-22T15:32:44.104Z,100.00
2018-12-22T15:35:07.989Z,100.00
2018-12-22T15:37:34.588Z,100.00
2018-12-22T15:40:00.510Z,100.00
2018-12-22T15:42:26.425Z,100.00
2018-12-22T15:44:52.335Z,100.00
2018-12-22T15:47:18.300Z,100.00
2018-12-22T15:49:44.189Z,100.00
2018-12-22T15:52:10.110Z,100.00
2018-12-22T15:54:35.974Z,100.00
2018-12-22T15:57:01.835Z,100.00
2018-12-22T15:59:27.723Z,100.00
2018-12-22T16:01:53.693Z,100.00
2018-12-22T16:04:19.612Z,100.00
2018-12-22T16:06:45.539Z,100.00
2018-12-22T16:09:11.424Z,100.00
2018-12-22T16:11:37.730Z,100.00
2018-12-22T16:14:03.625Z,100.00
2018-12-22T16:16:29.649Z,100.00
2018-12-22T16:18:55.623Z,100.00
2018-12-22T16:21:21.489Z,100.00
2018-12-22T16:23:47.511Z,100.00
2018-12-22T16:26:14.637Z,100.00
2018-12-22T16:28:40.656Z,100.00
2018-12-22T16:31:06.653Z,100.00
2018-12-22T16:33:32.536Z,100.00
2018-12-22T16:36:01.600Z,100.00
2018-12-22T16:38:27.498Z,100.00
2018-12-22T16:40:57.261Z,100.00
2018-12-22T16:43:23.209Z,100.00
2018-12-22T16:45:49.108Z,100.00
2018-12-22T16:48:15.006Z,100.00
2018-12-22T16:50:40.901Z,100.00
2018-12-22T16:53:09.684Z,100.00
2018-12-22T16:55:35.575Z,100.00
2018-12-22T16:58:09.903Z,100.00
2018-12-22T17:00:51.887Z,100.00
2018-12-22T17:03:17.743Z,100.00
2018-12-22T17:05:43.654Z,100.00
2018-12-22T17:08:09.614Z,99.53
2018-12-22T17:10:35.531Z,98.96
2018-12-22T17:13:01.423Z,99.35
2018-12-22T17:15:27.367Z,99.20
2018-12-22T17:17:53.333Z,99.33
2018-12-22T17:20:19.176Z,99.34
2018-12-22T17:23:00.397Z,98.98
2018-12-22T17:25:26.426Z,99.42
2018-12-22T17:27:52.307Z,99.42
2018-12-22T17:30:18.225Z,99.14
2018-12-22T17:32:44.117Z,99.46
2018-12-22T17:35:13.547Z,98.58
2018-12-22T17:37:39.460Z,98.53
2018-12-22T17:40:09.552Z,97.80
2018-12-22T17:42:35.312Z,98.32
2018-12-22T17:45:01.183Z,97.93
2018-12-22T17:47:27.114Z,98.07
2018-12-22T17:49:52.968Z,97.49
2018-12-22T17:52:18.813Z,97.12
2018-12-22T17:54:44.728Z,97.75
2018-12-22T17:57:10.600Z,96.94
2018-12-22T17:59:36.520Z,96.09
2018-12-22T18:02:02.766Z,94.92
2018-12-22T18:04:28.662Z,93.72
2018-12-22T18:06:54.532Z,92.45
2018-12-22T18:09:20.548Z,91.71
2018-12-22T18:11:48.399Z,92.04
2018-12-22T18:14:14.316Z,91.89
2018-12-22T18:16:40.213Z,91.91
2018-12-22T18:19:06.095Z,92.39
2018-12-22T18:21:32.073Z,92.39
2018-12-22T18:23:58.072Z,91.89
2018-12-22T18:26:25.144Z,91.75
2018-12-22T18:28:51.220Z,91.53
2018-12-22T18:31:18.206Z,91.71
2018-12-22T18:33:44.526Z,90.92
2018-12-22T18:36:10.474Z,91.79
2018-12-22T18:38:36.351Z,91.45
2018-12-22T18:41:02.411Z,91.64
2018-12-22T18:43:28.281Z,91.58
2018-12-22T18:45:54.456Z,92.69
2018-12-22T18:48:22.683Z,92.41
2018-12-22T18:50:48.731Z,92.25
2018-12-22T18:53:14.645Z,90.95
2018-12-22T18:55:40.533Z,91.95
2018-12-22T18:58:08.481Z,91.65
2018-12-22T19:00:34.392Z,91.48
2018-12-22T19:03:03.567Z,90.63
2018-12-22T19:05:29.481Z,90.26
2018-12-22T19:07:57.414Z,90.04
2018-12-22T19:10:28.551Z,90.15
2018-12-22T19:12:56.153Z,89.98
2018-12-22T19:15:22.944Z,89.48
2018-12-22T19:17:48.879Z,88.80
2018-12-22T19:20:22.446Z,89.00
2018-12-22T19:22:48.398Z,89.72
2018-12-22T19:25:14.341Z,91.30
2018-12-22T19:27:40.280Z,90.64
2018-12-22T19:30:07.530Z,90.49
2018-12-22T19:32:33.405Z,90.98
2018-12-22T19:35:07.381Z,90.68
2018-12-22T19:37:33.525Z,90.67
2018-12-22T19:39:59.469Z,91.07
2018-12-22T19:42:25.439Z,91.10
2018-12-22T19:44:51.391Z,90.45
2018-12-22T19:47:17.309Z,90.55
2018-12-22T19:49:43.185Z,90.44
2018-12-22T19:52:09.216Z,90.53
2018-12-22T19:54:35.119Z,91.80
2018-12-22T19:57:01.014Z,90.90
2018-12-22T19:59:26.940Z,91.07
2018-12-22T20:01:52.808Z,90.69
2018-12-22T20:04:18.719Z,91.12
2018-12-22T20:06:45.464Z,91.32
2018-12-22T20:09:11.934Z,91.93
2018-12-22T20:11:39.207Z,92.04
2018-12-22T20:14:05.064Z,91.63
2018-12-22T20:16:34.875Z,91.94
2018-12-22T20:19:03.774Z,92.61
2018-12-22T20:21:30.148Z,92.60
2018-12-22T20:23:56.141Z,93.16
2018-12-22T20:26:22.075Z,92.78
2018-12-22T20:28:48.001Z,92.81
2018-12-22T20:31:13.888Z,92.88
2018-12-22T20:33:40.390Z,93.31
2018-12-22T20:36:06.309Z,93.40
2018-12-22T20:38:35.920Z,92.66
2018-12-22T20:41:01.806Z,93.15
2018-12-22T20:43:34.481Z,92.49
2018-12-22T20:46:00.789Z,92.76
2018-12-22T20:48:26.723Z,92.63
2018-12-22T20:50:53.007Z,93.08
2018-12-22T20:53:19.342Z,93.49
2018-12-22T20:55:45.203Z,93.55
2018-12-22T20:58:14.660Z,93.18
2018-12-22T21:00:40.591Z,93.74
2018-12-22T21:03:06.478Z,94.09
2018-12-22T21:05:34.019Z,95.21
2018-12-22T21:07:59.902Z,95.22
2018-12-22T21:10:25.863Z,96.34
2018-12-22T21:12:51.759Z,95.82
2018-12-22T21:15:21.415Z,95.77
2018-12-22T21:17:47.285Z,96.43
2018-12-22T21:20:14.895Z,97.38
2018-12-22T21:22:40.804Z,97.32
2018-12-22T21:25:10.189Z,97.48
2018-12-22T21:27:36.039Z,97.39
2018-12-22T21:30:06.051Z,97.23
2018-12-22T21:32:35.350Z,97.12
2018-12-22T21:35:01.514Z,97.72
2018-12-22T21:37:27.615Z,96.50
2018-12-22T21:39:53.717Z,97.06
2018-12-22T21:42:19.683Z,96.57
2018-12-22T21:44:45.564Z,96.57
2018-12-22T21:47:11.507Z,97.13
2018-12-22T21:49:37.675Z,96.74
2018-12-22T21:52:07.591Z,95.74
2018-12-22T21:54:33.482Z,96.86
2018-12-22T21:57:00.268Z,96.80
2018-12-22T21:59:26.167Z,97.53
2018-12-22T22:01:55.825Z,96.94
2018-12-22T22:04:21.720Z,96.79
2018-12-22T22:06:51.415Z,96.33
2018-12-22T22:09:19.167Z,96.66
2018-12-22T22:11:45.180Z,96.33
2018-12-22T22:14:11.074Z,96.75
2018-12-22T22:16:37.057Z,96.74
2018-12-22T22:19:03.091Z,95.99
2018-12-22T22:21:29.001Z,95.75
2018-12-22T22:23:56.048Z,96.48
2018-12-22T22:26:21.922Z,96.39
2018-12-22T22:28:50.193Z,96.04
2018-12-22T22:31:16.128Z,96.44
2018-12-22T22:36:13.218Z,95.31
2018-12-22T22:38:39.976Z,95.08
2018-12-22T22:41:05.854Z,95.63
2018-12-22T22:43:35.388Z,94.78
2018-12-22T22:46:01.289Z,95.03
2018-12-22T22:48:30.313Z,94.90
2018-12-22T22:50:56.223Z,93.83
2018-12-22T22:53:22.166Z,94.98
2018-12-22T22:55:48.062Z,94.80
2018-12-22T22:58:13.948Z,94.00
2018-12-22T23:00:42.270Z,93.50
2018-12-22T23:03:08.177Z,93.53
2018-12-22T23:05:35.846Z,93.38
2018-12-22T23:08:01.686Z,93.34
2018-12-22T23:10:30.383Z,94.30
2018-12-22T23:12:56.267Z,93.89
2018-12-22T23:15:25.390Z,93.85
2018-12-22T23:17:54.296Z,93.93
2018-12-22T23:20:20.258Z,94.08
2018-12-22T23:22:46.122Z,93.83
2018-12-22T23:25:17.199Z,93.57
2018-12-22T23:27:43.076Z,94.43
2018-12-22T23:30:09.133Z,93.85
2018-12-22T23:32:35.035Z,93.78
2018-12-22T23:35:03.179Z,92.65
2018-12-22T23:37:29.064Z,92.86
2018-12-22T23:39:55.219Z,93.63
2018-12-22T23:42:21.146Z,93.85
2018-12-22T23:44:47.033Z,93.46
2018-12-22T23:47:15.912Z,93.63
2018-12-22T23:49:41.797Z,92.90
2018-12-22T23:52:10.258Z,93.88
2018-12-22T23:54:36.150Z,93.12
2018-12-22T23:59:32.851Z,93.29
